Clinton Corners, NY (12514)

12:07 PM EST on December 25, 2014 (GMT -0500)
354 Allen | Change Station
CLOSE
Current Station
Personal Weather Station
Location: Salt Point, NY
Elevation: 590 ft
Nearby Weather Stations

Elev 590 ft 41.83 °N, 73.80 °W | Updated 5 seconds ago

Overcast
Overcast
48.2 °F
Feels Like 48 °F
N
0.0
Wind Variable Wind from North
Gusts 4.0 mph

Today
High -- | Low -- °F
--% Chance of Precip.
Yesterday
High -- | Low -- °F
Precip. -- in
7:21 AM 4:29 PM
Waxing Crescent, 17% visible
Pressure 29.70 in
Visibility 10.0 miles
Clouds Mostly Cloudy 6000 ft
Mostly Cloudy 7000 ft
Windchill 48 °F
Dew Point 37 °F
Humidity 64%
Rainfall 0.02 in
Snow Depth Not available.
UV 1 out of 12
Pollen .10 out of 12
Air Quality Not available.
Flu Activity Not available.
METAR KPOU 251653Z 28015G22KT 10SM BKN060 BKN070 11/M01 A2971 RMK AO2 SLP057 T01061011

More Conditions Fewer Conditions

Pressure 29.70 in
Visibility 10.0 miles
Clouds Mostly Cloudy 6000 ft
Mostly Cloudy 7000 ft
Windchill 48 °F
Dew Point 37 °F
Humidity 64%
Rainfall 0.02 in
Snow Depth Not available.
UV 1 out of 12
Pollen .10 out of 12
Air Quality Not available.
Flu Activity Not available.
METAR KPOU 251653Z 28015G22KT 10SM BKN060 BKN070 11/M01 A2971 RMK AO2 SLP057 T01061011

More Conditions Fewer Conditions

10-Day Weather Forecast

Almanac

Astronomy

Dec. 25, 2014 Rise Set
Actual Time
Civil Twilight
Nautical Twilight
Astronomical Twilight
Moon
Length of Visible Light
Length of Day
Tomorrow will be .
, % of the Moon is Illuminated

Today's Extremes

State Highs State Lows

Community

WunderPhotos

Upload Photos

1,780,343 photos uploaded!

WunderBlogs® & News

Nearby

Air Quality

  Air Quality AQ Index Pollutant
Not available.

Snow Depth

Station Depth Elevation

Earthquake Activity

City Distance Mag. Time & Date
Minimum magnitude displayed is 2.5.

Coastal Water Temperatures

Place Temperature

Nearby Weather Stations